Time;durP1;ratioP1;P1;durP2;ratioP2;P2;SDS_P1;SDS_P2;PMS_P1;PMS_P2;Temp;Humidity;BMP_temperature;BMP_pressure;BME280_temperature;BME280_humidity;BME280_pressure;Samples;Min_cycle;Max_cycle;Signal;HPM_P1;HPM_P2
2022/09/19 00:01:16;;;;;;;25.55;2.60;;;11.90;99.90;;;;;;4960003;28;20153;-89
2022/09/19 00:03:45;;;;;;;13.00;2.75;;;12.00;99.90;;;;;;4975343;28;20053;-88
2022/09/19 00:06:15;;;;;;;12.70;1.45;;;12.70;99.90;;;;;;4991293;28;20050;-88
2022/09/19 00:08:43;;;;;;;10.15;1.63;;;12.50;99.90;;;;;;5006171;28;20065;-88
2022/09/19 00:11:10;;;;;;;11.70;1.90;;;11.90;99.90;;;;;;4975156;28;20425;-88
2022/09/19 00:13:44;;;;;;;15.07;2.97;;;11.90;99.90;;;;;;4990927;28;20042;-88
2022/09/19 00:16:11;;;;;;;17.85;2.30;;;12.00;99.90;;;;;;5007187;28;20053;-88
2022/09/19 00:18:37;;;;;;;22.27;2.45;;;12.50;99.90;;;;;;5007081;28;20046;-88
2022/09/19 00:21:02;;;;;;;14.68;1.95;;;11.90;99.90;;;;;;4990659;28;20049;-87
2022/09/19 00:26:17;;;;;;;15.63;2.08;;;13.00;99.90;;;;;;4990216;28;20192;-88
2022/09/19 00:28:45;;;;;;;9.98;1.08;;;11.90;99.90;;;;;;4959185;28;20034;-87
2022/09/19 00:31:18;;;;;;;8.60;1.60;;;11.90;99.90;;;;;;4958161;28;20046;-87
2022/09/19 00:33:46;;;;;;;14.77;3.03;;;11.90;99.90;;;;;;4973957;28;20056;-87
2022/09/19 00:36:13;;;;;;;15.40;1.67;;;12.00;99.90;;;;;;4974874;28;20417;-88
2022/09/19 00:38:39;;;;;;;18.92;1.88;;;12.00;99.90;;;;;;4958605;28;20451;-88
2022/09/19 00:41:06;;;;;;;25.92;2.92;;;12.10;99.90;;;;;;4974157;28;20046;-88
2022/09/19 00:43:49;;;;;;;15.63;2.42;;;12.20;99.90;;;;;;4974517;28;20512;-88
2022/09/19 00:46:16;;;;;;;17.85;1.90;;;12.20;99.90;;;;;;4990651;28;20460;-89
2022/09/19 00:48:45;;;;;;;15.68;3.08;;;12.20;99.90;;;;;;4975401;28;20060;-89
2022/09/19 00:51:20;;;;;;;21.83;2.38;;;12.50;99.90;;;;;;4990279;28;20497;-88
2022/09/19 00:53:47;;;;;;;18.85;2.63;;;12.20;99.90;;;;;;4974244;28;20050;-88
2022/09/19 00:56:15;;;;;;;15.65;2.17;;;12.20;99.90;;;;;;4974303;28;20401;-88
2022/09/19 00:58:44;;;;;;;14.48;1.98;;;12.20;99.90;;;;;;4974017;28;20063;-87
2022/09/19 01:01:13;;;;;;;19.02;2.75;;;12.10;99.90;;;;;;4973633;28;20049;-89
2022/09/19 01:03:39;;;;;;;13.40;2.22;;;12.20;99.90;;;;;;4973342;28;20038;-90
2022/09/19 01:06:19;;;;;;;14.20;1.98;;;12.60;99.90;;;;;;4973660;28;20050;-88
2022/09/19 01:08:59;;;;;;;26.50;2.15;;;12.60;99.90;;;;;;4990109;28;20088;-90
2022/09/19 01:11:57;;;;;;;10.07;1.52;;;12.30;99.90;;;;;;4974338;28;20050;-90
2022/09/19 01:14:39;;;;;;;16.83;1.80;;;11.70;99.90;;;;;;4973996;28;20060;-90
2022/09/19 01:17:33;;;;;;;15.98;2.05;;;12.20;99.90;;;;;;4974573;28;20046;-88
2022/09/19 01:19:58;;;;;;;11.93;2.40;;;12.20;99.90;;;;;;4987987;28;20139;-90
2022/09/19 01:22:54;;;;;;;19.45;2.25;;;12.20;99.90;;;;;;4973530;28;20081;-90
2022/09/19 01:25:46;;;;;;;9.50;1.45;;;12.20;99.90;;;;;;4973664;28;20057;-91
2022/09/19 01:28:20;;;;;;;17.45;2.13;;;12.20;99.90;;;;;;4974565;28;20112;-90
2022/09/19 01:31:18;;;;;;;20.35;2.20;;;12.20;99.90;;;;;;4974074;28;20466;-90
2022/09/19 01:34:09;;;;;;;15.57;2.35;;;12.20;99.90;;;;;;4990329;28;20046;-89
2022/09/19 01:37:30;;;;;;;17.17;1.80;;;12.10;99.90;;;;;;4991056;28;20144;-90
2022/09/19 01:40:00;;;;;;;14.00;2.10;;;12.20;99.90;;;;;;4951133;28;20061;-90
2022/09/19 01:42:26;;;;;;;15.13;1.63;;;12.10;99.90;;;;;;4975439;28;20052;-90
2022/09/19 01:44:53;;;;;;;21.85;2.30;;;12.80;99.90;;;;;;4982593;28;20078;-90
2022/09/19 01:47:50;;;;;;;11.48;2.00;;;12.20;99.90;;;;;;4982700;28;20057;-89
2022/09/19 01:50:37;;;;;;;17.15;2.05;;;12.20;99.90;;;;;;4982135;28;20108;-90
2022/09/19 01:53:24;;;;;;;15.88;2.20;;;12.20;99.90;;;;;;4983539;28;20483;-90
2022/09/19 01:56:06;;;;;;;8.85;1.30;;;12.20;99.90;;;;;;4982636;28;20061;-88
2022/09/19 01:58:49;;;;;;;21.42;2.47;;;12.20;99.90;;;;;;4991176;28;20498;-89
2022/09/19 02:01:38;;;;;;;12.53;1.97;;;12.60;99.90;;;;;;4974551;28;20054;-90
2022/09/19 02:04:29;;;;;;;13.40;2.25;;;12.20;99.90;;;;;;4974176;28;20069;-89
2022/09/19 02:07:08;;;;;;;18.92;2.55;;;12.20;99.90;;;;;;4987527;28;20053;-89
2022/09/19 02:09:49;;;;;;;16.30;2.63;;;12.20;99.90;;;;;;5005537;28;20057;-88
2022/09/19 02:12:18;;;;;;;16.98;2.78;;;12.20;99.90;;;;;;4973634;28;20048;-89
2022/09/19 02:14:50;;;;;;;19.10;2.55;;;12.20;99.90;;;;;;4973654;28;20050;-89
2022/09/19 02:17:23;;;;;;;18.65;2.15;;;12.20;99.90;;;;;;4990185;28;20046;-89
2022/09/19 02:19:53;;;;;;;12.10;1.52;;;12.20;99.90;;;;;;4974018;28;20081;-89
2022/09/19 02:22:31;;;;;;;16.27;1.85;;;12.20;99.90;;;;;;4973490;28;20042;-89
2022/09/19 02:25:21;;;;;;;13.43;1.85;;;12.20;99.90;;;;;;4974636;28;20100;-88
2022/09/19 02:28:07;;;;;;;16.50;1.83;;;12.20;99.90;;;;;;4991679;28;20088;-88
2022/09/19 02:30:34;;;;;;;10.52;1.48;;;12.10;99.90;;;;;;4983382;28;20575;-87
2022/09/19 02:33:07;;;;;;;14.38;1.58;;;12.10;99.90;;;;;;4987682;28;20037;-88
2022/09/19 02:35:38;;;;;;;;;;;12.40;99.90;;;;;;4988888;28;20046;-88
2022/09/19 02:38:22;;;;;;;8.85;1.27;;;12.10;99.90;;;;;;4988831;28;19960;-88
2022/09/19 02:40:58;;;;;;;6.88;1.33;;;12.00;99.90;;;;;;4998180;28;20066;-88
2022/09/19 02:43:33;;;;;;;13.88;1.40;;;12.00;99.90;;;;;;5001619;28;20037;-88
2022/09/19 02:46:11;;;;;;;8.82;1.27;;;12.00;99.90;;;;;;5017627;28;20073;-87
2022/09/19 02:48:50;;;;;;;10.88;1.35;;;12.00;99.90;;;;;;5017301;28;20525;-86
2022/09/19 02:51:21;;;;;;;11.82;1.15;;;12.00;99.90;;;;;;5000613;28;20052;-88
2022/09/19 02:53:53;;;;;;;11.05;1.90;;;12.00;99.90;;;;;;4998213;28;20026;-88
2022/09/19 02:56:22;;;;;;;12.50;1.63;;;12.10;99.90;;;;;;4977629;28;20520;-87
2022/09/19 02:58:53;;;;;;;9.10;0.95;;;12.00;99.90;;;;;;4961181;28;20616;-88
2022/09/19 03:01:25;;;;;;;15.75;2.50;;;12.00;99.90;;;;;;4976155;28;20042;-87
2022/09/19 03:04:14;;;;;;;7.50;1.30;;;12.00;99.90;;;;;;4975636;28;20054;-88
2022/09/19 03:06:52;;;;;;;15.65;1.48;;;12.00;99.90;;;;;;4976223;28;20817;-88
2022/09/19 03:09:22;;;;;;;8.57;1.02;;;12.10;99.90;;;;;;4992115;28;20053;-89
2022/09/19 03:11:55;;;;;;;12.35;1.20;;;11.90;99.90;;;;;;4976105;28;20050;-88
2022/09/19 03:14:22;;;;;;;16.42;1.52;;;11.90;99.90;;;;;;4975473;28;20085;-88
2022/09/19 03:16:53;;;;;;;10.27;1.30;;;11.90;99.90;;;;;;4960590;28;20050;-88
2022/09/19 03:19:19;;;;;;;10.65;1.40;;;11.90;99.90;;;;;;5007641;28;20046;-88
2022/09/19 03:21:44;;;;;;;12.45;2.30;;;11.90;99.90;;;;;;4976067;28;20371;-89
2022/09/19 03:24:11;;;;;;;14.75;1.92;;;12.00;99.90;;;;;;4975312;28;20104;-89
2022/09/19 03:26:37;;;;;;;14.43;1.80;;;12.00;99.90;;;;;;4959212;28;20050;-88
2022/09/19 03:29:06;;;;;;;17.92;2.10;;;12.40;99.90;;;;;;4959372;28;20112;-88
2022/09/19 03:31:32;;;;;;;19.85;1.67;;;13.00;99.90;;;;;;4975894;28;20046;-89
2022/09/19 03:33:58;;;;;;;18.20;2.63;;;12.20;99.90;;;;;;4975822;28;20042;-89
2022/09/19 03:36:25;;;;;;;17.10;1.67;;;12.30;99.90;;;;;;4975811;28;20052;-88
2022/09/19 03:38:51;;;;;;;20.50;2.58;;;12.20;99.90;;;;;;4976251;28;20038;-89
2022/09/19 03:41:19;;;;;;;17.58;1.70;;;12.20;99.90;;;;;;4960154;28;20108;-90
2022/09/19 03:43:45;;;;;;;20.25;2.42;;;12.20;99.90;;;;;;4974916;28;20397;-89
2022/09/19 03:46:13;;;;;;;21.40;3.90;;;12.20;99.90;;;;;;4959897;28;20100;-89
2022/09/19 03:48:46;;;;;;;16.58;1.98;;;12.20;99.90;;;;;;4975552;28;20038;-89
2022/09/19 03:51:13;;;;;;;;;;;12.20;99.90;;;;;;4976673;28;20042;-90
2022/09/19 03:53:38;;;;;;;13.38;1.83;;;12.40;99.90;;;;;;4975689;28;19921;-89
2022/09/19 03:56:04;;;;;;;11.60;1.45;;;12.20;99.90;;;;;;4960112;28;20049;-90
2022/09/19 03:58:30;;;;;;;18.20;2.03;;;12.20;99.90;;;;;;5008053;28;20504;-89
2022/09/19 04:00:57;;;;;;;11.85;2.47;;;12.20;99.90;;;;;;4959240;28;20089;-90
2022/09/19 04:03:23;;;;;;;19.58;2.50;;;12.20;99.90;;;;;;4975439;28;20512;-88
2022/09/19 04:05:52;;;;;;;23.40;2.83;;;12.20;99.90;;;;;;4975270;28;20120;-89
2022/09/19 04:08:20;;;;;;;23.10;2.40;;;12.10;99.90;;;;;;4975875;28;20042;-89
2022/09/19 04:10:46;;;;;;;11.60;1.98;;;12.10;99.90;;;;;;4959334;28;20191;-90
2022/09/19 04:13:13;;;;;;;16.52;3.38;;;12.20;99.90;;;;;;4976034;28;20053;-91
2022/09/19 04:15:40;;;;;;;13.55;2.15;;;12.90;99.90;;;;;;4975028;28;20069;-89
2022/09/19 04:18:06;;;;;;;16.65;4.00;;;12.20;99.90;;;;;;4974775;28;20053;-87
2022/09/19 04:20:33;;;;;;;14.23;2.47;;;12.30;99.90;;;;;;4975275;28;20132;-89
2022/09/19 04:23:00;;;;;;;12.95;2.97;;;12.20;99.90;;;;;;5006867;28;20520;-89
2022/09/19 04:25:35;;;;;;;13.40;1.42;;;12.20;99.90;;;;;;4958599;28;20386;-85
2022/09/19 04:28:07;;;;;;;10.98;1.83;;;12.20;99.90;;;;;;5007126;28;20050;-88
2022/09/19 04:30:35;;;;;;;13.85;1.70;;;12.20;99.90;;;;;;4990384;28;20093;-82
2022/09/19 04:33:03;;;;;;;8.85;1.38;;;12.10;99.90;;;;;;4974176;28;20091;-86
2022/09/19 04:35:35;;;;;;;13.75;2.05;;;12.10;99.90;;;;;;4989908;28;20092;-90
2022/09/19 04:38:13;;;;;;;14.30;2.58;;;12.00;99.90;;;;;;4990684;28;20077;-89
2022/09/19 04:40:45;;;;;;;19.23;3.42;;;12.00;99.90;;;;;;4990175;28;20096;-89
2022/09/19 04:43:14;;;;;;;17.17;2.03;;;12.00;99.90;;;;;;4973919;28;20049;-88
2022/09/19 04:45:42;;;;;;;14.23;1.70;;;12.00;99.90;;;;;;4973485;28;20050;-87
2022/09/19 04:48:08;;;;;;;14.38;2.17;;;12.00;99.90;;;;;;4974151;28;20601;-88
2022/09/19 04:50:35;;;;;;;23.50;3.35;;;12.50;99.90;;;;;;4990212;28;20038;-86
2022/09/19 04:53:36;;;;;;;13.63;2.40;;;12.50;99.90;;;;;;5147117;27;1301919;-87
2022/09/19 04:56:02;;;;;;;10.10;1.60;;;12.70;99.90;;;;;;5135294;27;20050;-87
2022/09/19 04:58:28;;;;;;;21.58;3.00;;;11.90;99.90;;;;;;5099838;27;20150;-84
2022/09/19 05:00:55;;;;;;;15.30;2.20;;;11.90;99.90;;;;;;5141121;27;20042;-84
2022/09/19 05:03:25;;;;;;;19.88;2.75;;;12.10;99.90;;;;;;5129466;27;20147;-86
2022/09/19 05:05:52;;;;;;;12.57;2.08;;;12.00;99.90;;;;;;5132308;27;20047;-86
2022/09/19 05:08:26;;;;;;;20.92;2.45;;;12.00;99.90;;;;;;5112578;27;20534;-86
2022/09/19 05:10:54;;;;;;;29.45;3.97;;;12.10;99.90;;;;;;5131601;27;20085;-86
2022/09/19 05:13:24;;;;;;;22.70;5.18;;;12.10;99.90;;;;;;5130502;27;20051;-86
2022/09/19 05:15:51;;;;;;;16.48;2.45;;;12.10;99.90;;;;;;5112214;27;20103;-86
2022/09/19 05:18:21;;;;;;;18.73;3.28;;;12.10;99.90;;;;;;5113629;27;20082;-87
2022/09/19 05:20:47;;;;;;;18.75;2.58;;;12.20;99.90;;;;;;5129486;27;20542;-87
2022/09/19 05:23:14;;;;;;;21.08;2.50;;;12.10;99.90;;;;;;5096441;27;20129;-86
2022/09/19 05:25:40;;;;;;;21.17;3.03;;;12.70;99.90;;;;;;5096414;27;20122;-86
2022/09/19 05:28:06;;;;;;;15.88;2.95;;;12.10;99.90;;;;;;5120524;27;20019;-96
2022/09/19 05:30:34;;;;;;;12.93;1.85;;;12.20;99.90;;;;;;5116480;27;20031;-96
2022/09/19 05:33:03;;;;;;;13.10;2.33;;;12.20;99.90;;;;;;5137458;27;20095;-91
2022/09/19 05:35:36;;;;;;;10.50;1.38;;;12.20;99.90;;;;;;5143121;27;20061;-88
2022/09/19 05:49:19;;;;;;;18.17;2.22;;;12.30;99.90;;;;;;5033856;28;20037;-96
2022/09/19 05:59:38;;;;;;;15.45;2.17;;;12.20;99.90;;;;;;5015607;28;20031;-89
2022/09/19 06:02:06;;;;;;;10.82;2.10;;;12.30;99.90;;;;;;4972966;28;20090;-87
2022/09/19 06:04:32;;;;;;;10.77;1.45;;;12.30;99.90;;;;;;4974030;28;20055;-86
2022/09/19 06:06:58;;;;;;;20.23;2.17;;;12.30;99.90;;;;;;5053791;28;20083;-87
2022/09/19 06:09:24;;;;;;;20.23;3.92;;;12.30;99.90;;;;;;5053360;28;20091;-87
2022/09/19 06:11:50;;;;;;;14.02;2.35;;;12.40;99.90;;;;;;5052274;28;20078;-87
2022/09/19 06:14:17;;;;;;;20.20;3.17;;;12.40;99.90;;;;;;5053908;28;20049;-86
2022/09/19 06:16:43;;;;;;;18.95;1.73;;;12.40;99.90;;;;;;5052008;28;20040;-86
2022/09/19 06:19:09;;;;;;;14.40;2.10;;;12.40;99.90;;;;;;5069210;27;20142;-87
2022/09/19 06:21:35;;;;;;;9.60;2.22;;;12.50;99.90;;;;;;5096912;27;20082;-87
2022/09/19 06:24:01;;;;;;;9.52;1.88;;;12.50;99.90;;;;;;5098255;27;20046;-87
2022/09/19 06:26:27;;;;;;;10.57;2.60;;;12.60;99.90;;;;;;5081047;27;20040;-86
2022/09/19 06:28:53;;;;;;;9.63;1.52;;;12.60;99.90;;;;;;5114063;27;20039;-86
2022/09/19 06:31:19;;;;;;;14.15;2.25;;;12.90;99.90;;;;;;5098198;27;20081;-87
2022/09/19 06:33:45;;;;;;;11.55;1.45;;;13.10;99.90;;;;;;5096545;27;20084;-87
2022/09/19 06:36:11;;;;;;;14.25;1.90;;;12.70;99.90;;;;;;5098492;27;20051;-87
2022/09/19 06:38:40;;;;;;;18.10;2.47;;;12.80;99.90;;;;;;5113334;27;20039;-87
2022/09/19 06:41:08;;;;;;;11.55;1.95;;;12.80;99.90;;;;;;5098474;27;20051;-87
2022/09/19 06:43:33;;;;;;;20.05;3.90;;;12.90;99.90;;;;;;5097774;27;20041;-87
2022/09/19 06:45:59;;;;;;;9.90;1.30;;;12.90;99.90;;;;;;5097460;27;20043;-87
2022/09/19 06:48:25;;;;;;;20.67;2.55;;;13.40;99.90;;;;;;5081808;27;20416;-86
2022/09/19 06:50:50;;;;;;;15.38;1.88;;;13.00;99.90;;;;;;5096612;27;20520;-83
2022/09/19 06:53:17;;;;;;;18.60;2.78;;;13.00;99.90;;;;;;5114963;27;20402;-83
2022/09/19 06:55:43;;;;;;;13.80;1.80;;;13.10;99.90;;;;;;5078877;27;20048;-85
2022/09/19 06:58:10;;;;;;;20.00;2.42;;;13.10;99.90;;;;;;5081101;27;20054;-85
2022/09/19 07:00:38;;;;;;;19.42;3.00;;;13.10;99.90;;;;;;5096919;27;20047;-87
2022/09/19 07:03:08;;;;;;;21.67;1.90;;;13.10;99.90;;;;;;5096800;27;20039;-86
2022/09/19 07:05:36;;;;;;;17.58;2.30;;;13.10;99.90;;;;;;5098637;27;20073;-87
2022/09/19 07:08:02;;;;;;;13.55;2.17;;;13.80;99.90;;;;;;5078950;27;20043;-87
2022/09/19 07:10:28;;;;;;;16.13;2.22;;;13.20;99.90;;;;;;5082006;27;20435;-88
2022/09/19 07:13:01;;;;;;;18.88;2.42;;;13.70;99.90;;;;;;5117266;27;20046;-87
2022/09/19 07:15:37;;;;;;;9.85;1.55;;;13.10;99.90;;;;;;5085351;27;20042;-87
2022/09/19 07:18:08;;;;;;;21.55;4.07;;;13.10;99.90;;;;;;5086542;27;20043;-86
2022/09/19 07:20:35;;;;;;;13.32;1.98;;;13.10;99.90;;;;;;5102881;27;20132;-87
2022/09/19 07:23:21;;;;;;;7.22;1.55;;;13.30;99.90;;;;;;5101537;27;20126;-87
2022/09/19 07:25:48;;;;;;;15.73;1.65;;;13.90;99.90;;;;;;5097796;27;20055;-87
2022/09/19 07:28:16;;;;;;;14.95;2.25;;;13.30;99.90;;;;;;5098068;27;20506;-86
2022/09/19 07:30:43;;;;;;;12.93;2.67;;;13.20;99.90;;;;;;5096878;27;20078;-87
2022/09/19 07:33:10;;;;;;;13.23;1.60;;;13.20;99.90;;;;;;5096433;27;20517;-87
2022/09/19 07:35:41;;;;;;;11.50;1.92;;;13.20;99.90;;;;;;5097479;27;20131;-87
2022/09/19 07:38:11;;;;;;;12.27;1.77;;;13.20;99.90;;;;;;5095922;27;20453;-87
2022/09/19 07:40:37;;;;;;;18.65;2.13;;;13.20;99.90;;;;;;5114086;27;20050;-87
2022/09/19 07:43:04;;;;;;;11.77;2.13;;;13.30;99.90;;;;;;5113512;27;20043;-88
2022/09/19 07:45:33;;;;;;;18.55;2.15;;;13.30;99.90;;;;;;5096919;27;20039;-87
2022/09/19 07:47:59;;;;;;;15.57;2.25;;;13.40;99.90;;;;;;5096644;27;20047;-88
2022/09/19 07:50:24;;;;;;;16.60;3.42;;;13.40;99.90;;;;;;5078752;27;20421;-87
2022/09/19 07:53:05;;;;;;;20.50;2.60;;;13.40;99.90;;;;;;5096750;27;20050;-86
2022/09/19 07:55:31;;;;;;;11.85;1.67;;;13.40;99.90;;;;;;5094806;27;20055;-86
2022/09/19 07:57:58;;;;;;;14.90;2.85;;;13.30;99.90;;;;;;5079720;27;20047;-87
2022/09/19 08:00:26;;;;;;;19.13;1.88;;;13.40;99.90;;;;;;5113027;27;20383;-87
2022/09/19 08:02:57;;;;;;;16.52;2.53;;;13.60;99.90;;;;;;5096198;27;20035;-86
2022/09/19 08:05:23;;;;;;;11.65;2.97;;;13.80;99.90;;;;;;5113759;27;20047;-87
2022/09/19 08:07:49;;;;;;;19.27;3.10;;;14.10;99.90;;;;;;5077815;27;20047;-86
2022/09/19 08:10:15;;;;;;;11.38;2.40;;;14.20;99.90;;;;;;5079520;27;20039;-87
2022/09/19 08:12:45;;;;;;;17.50;2.33;;;14.50;99.90;;;;;;5094606;27;20390;-87
2022/09/19 08:15:16;;;;;;;17.80;2.28;;;14.20;99.90;;;;;;5113185;27;20124;-87
2022/09/19 08:17:43;;;;;;;18.27;2.40;;;14.10;99.90;;;;;;5112585;27;20171;-87
2022/09/19 08:20:09;;;;;;;19.70;2.42;;;14.20;99.90;;;;;;5079029;27;20575;-87
2022/09/19 08:22:35;;;;;;;17.88;2.50;;;14.30;99.90;;;;;;5096433;27;20260;-88
2022/09/19 08:25:01;;;;;;;15.00;2.80;;;14.40;99.90;;;;;;5094612;27;20055;-84
2022/09/19 08:27:27;;;;;;;14.32;2.63;;;14.90;99.90;;;;;;5113044;27;20046;-84
2022/09/19 08:29:52;;;;;;;16.35;2.17;;;14.70;99.90;;;;;;5111099;27;20126;-84
2022/09/19 08:32:18;;;;;;;23.45;3.03;;;14.80;99.90;;;;;;5079519;27;20043;-84
2022/09/19 08:34:44;;;;;;;14.75;2.13;;;15.00;99.90;;;;;;5111955;27;20175;-84
2022/09/19 08:37:10;;;;;;;13.98;3.28;;;15.20;99.90;;;;;;5095181;27;20494;-84
2022/09/19 08:39:36;;;;;;;14.95;2.33;;;15.30;99.90;;;;;;5096286;27;20074;-84
2022/09/19 08:42:38;;;;;;;11.43;2.08;;;15.90;99.90;;;;;;5077370;27;20039;-84
2022/09/19 08:45:17;;;;;;;13.00;2.08;;;15.40;99.90;;;;;;5095891;27;20050;-84
2022/09/19 08:47:45;;;;;;;15.23;2.08;;;15.50;99.90;;;;;;5093783;28;20092;-84
2022/09/19 08:50:21;;;;;;;18.25;3.22;;;15.60;99.90;;;;;;5094562;28;20082;-85
2022/09/19 08:52:51;;;;;;;10.30;2.10;;;15.70;99.90;;;;;;5111954;28;20039;-85
2022/09/19 08:55:20;;;;;;;13.32;1.88;;;15.70;99.90;;;;;;5092635;28;20130;-84
2022/09/19 08:57:54;;;;;;;14.32;2.25;;;15.80;99.90;;;;;;5095345;28;20438;-85
2022/09/19 09:00:22;;;;;;;9.23;1.35;;;15.90;99.90;;;;;;5093529;28;20047;-84
2022/09/19 09:02:51;;;;;;;15.13;2.60;;;15.90;99.90;;;;;;5094191;28;20088;-85
2022/09/19 09:05:56;;;;;;;8.05;1.38;;;16.30;99.90;;;;;;5111733;28;20047;-85
2022/09/19 09:08:41;;;;;;;24.58;2.00;;;16.10;99.90;;;;;;5070926;28;20058;-85
2022/09/19 09:11:20;;;;;;;12.10;1.88;;;16.20;99.90;;;;;;5130012;28;20114;-86
2022/09/19 09:14:14;;;;;;;6.70;0.98;;;16.30;99.90;;;;;;5129872;28;20542;-89
2022/09/19 09:16:58;;;;;;;10.98;1.77;;;16.30;99.90;;;;;;5109820;28;20379;-85
2022/09/19 09:19:46;;;;;;;17.42;2.33;;;16.40;99.90;;;;;;5111967;28;20548;-85
2022/09/19 09:22:21;;;;;;;12.10;2.38;;;16.40;99.90;;;;;;5111410;28;20043;-85
2022/09/19 09:25:04;;;;;;;18.83;2.25;;;17.30;99.90;;;;;;5092797;28;20034;-86
2022/09/19 09:27:42;;;;;;;16.65;3.67;;;16.70;99.90;;;;;;5094735;28;20143;-85
2022/09/19 09:30:19;;;;;;;16.65;1.40;;;16.70;99.90;;;;;;5109884;28;20084;-86
2022/09/19 09:32:57;;;;;;;11.55;1.65;;;16.90;99.90;;;;;;5094178;28;20126;-86
2022/09/19 09:35:34;;;;;;;14.88;1.98;;;17.00;99.90;;;;;;5094962;28;20050;-86
2022/09/19 09:38:21;;;;;;;8.52;2.78;;;16.90;99.90;;;;;;5109720;28;20449;-86
2022/09/19 09:43:55;;;;;;;9.10;1.50;;;15.40;99.90;;;;;;5115066;27;20100;-84
2022/09/19 09:46:32;;;;;;;11.40;1.20;;;15.70;99.90;;;;;;5113273;27;20059;-83
2022/09/19 09:48:58;;;;;;;8.82;2.40;;;15.20;99.90;;;;;;5134002;27;20329;-84
2022/09/19 09:51:32;;;;;;;8.10;1.88;;;14.40;99.90;;;;;;5095639;27;20047;-85
2022/09/19 09:54:00;;;;;;;7.05;1.50;;;14.30;99.90;;;;;;5098189;27;20083;-84
2022/09/19 09:56:30;;;;;;;8.55;1.65;;;14.10;99.90;;;;;;5114179;27;20141;-83
2022/09/19 10:05:10;;;;;;;;;;;14.00;99.90;;;;;;5114952;27;20069;-83
2022/09/19 10:07:58;;;;;;;13.80;2.05;;;14.10;99.90;;;;;;5113669;27;19984;-86
2022/09/19 10:10:27;;;;;;;16.48;1.88;;;14.10;99.90;;;;;;5133783;27;20049;-81
2022/09/19 10:13:04;;;;;;;16.25;1.88;;;14.20;99.90;;;;;;5112643;27;20047;-84
2022/09/19 10:15:31;;;;;;;10.30;1.50;;;14.40;99.90;;;;;;5097311;27;20047;-84
2022/09/19 10:18:18;;;;;;;16.40;2.25;;;14.60;99.90;;;;;;5097322;27;20047;-84
2022/09/19 10:20:49;;;;;;;21.25;2.80;;;14.70;99.90;;;;;;5112619;27;20055;-83
2022/09/19 10:23:30;;;;;;;15.88;1.85;;;15.00;99.90;;;;;;5114555;27;20109;-83
2022/09/19 10:26:04;;;;;;;21.92;2.63;;;15.10;99.90;;;;;;5095565;27;20450;-87
2022/09/19 10:28:41;;;;;;;10.68;1.70;;;15.20;99.90;;;;;;5113857;27;20455;-81
2022/09/19 10:31:25;;;;;;;12.55;2.20;;;15.30;99.90;;;;;;5115278;27;20051;-90
2022/09/19 10:33:52;;;;;;;9.45;1.25;;;15.40;99.90;;;;;;5095656;27;20138;-86
2022/09/19 10:36:21;;;;;;;11.77;1.95;;;15.50;99.90;;;;;;5081324;27;20035;-90
2022/09/19 10:38:58;;;;;;;9.05;1.25;;;15.70;99.90;;;;;;5096582;27;20039;-88
2022/09/19 10:41:26;;;;;;;8.63;1.13;;;15.70;99.90;;;;;;5097788;27;20424;-90
2022/09/19 10:44:27;;;;;;;5.22;1.10;;;15.50;99.90;;;;;;5100553;27;20040;-89
2022/09/19 10:46:56;;;;;;;6.43;0.95;;;15.20;99.90;;;;;;5096726;27;20089;-90
2022/09/19 10:49:29;;;;;;;11.63;1.35;;;15.00;99.90;;;;;;5097862;27;20070;-90
2022/09/19 10:51:59;;;;;;;7.13;1.50;;;14.90;99.90;;;;;;5113588;27;20069;-91
2022/09/19 10:54:36;;;;;;;7.00;1.60;;;14.80;99.90;;;;;;5080479;27;20046;-91
2022/09/19 10:57:04;;;;;;;12.65;2.08;;;14.80;99.90;;;;;;5098280;27;20124;-92
2022/09/19 10:59:39;;;;;;;14.10;1.55;;;14.80;99.90;;;;;;5078851;27;20486;-91
2022/09/19 11:02:19;;;;;;;12.80;2.05;;;14.80;99.90;;;;;;5115450;27;20494;-90
2022/09/19 11:05:03;;;;;;;12.20;2.35;;;14.90;99.90;;;;;;5097481;27;20051;-90
2022/09/19 11:08:02;;;;;;;15.00;1.95;;;15.10;99.90;;;;;;5101167;27;20043;-90
2022/09/19 11:10:40;;;;;;;13.63;2.20;;;15.40;99.90;;;;;;5052224;27;20051;-90
2022/09/19 11:13:14;;;;;;;15.65;2.30;;;15.60;99.90;;;;;;5102272;27;20075;-91
2022/09/19 11:15:57;;;;;;;12.93;1.80;;;15.90;99.90;;;;;;5114527;27;20039;-90
2022/09/19 11:18:38;;;;;;;9.77;1.63;;;16.10;99.90;;;;;;5098276;27;20046;-90
2022/09/19 11:21:13;;;;;;;18.13;4.15;;;16.30;99.90;;;;;;5112688;27;20047;-89
2022/09/19 11:24:16;;;;;;;14.38;1.48;;;16.40;99.90;;;;;;5114346;27;20038;-88
2022/09/19 11:26:57;;;;;;;12.05;1.52;;;16.50;99.90;;;;;;5096518;27;20070;-89
2022/09/19 11:29:42;;;;;;;13.32;1.25;;;16.60;99.90;;;;;;5094213;27;20046;-90
2022/09/19 11:32:32;;;;;;;8.30;1.38;;;16.70;99.90;;;;;;5113338;27;20498;-89
2022/09/19 11:35:09;;;;;;;11.90;1.70;;;16.90;99.90;;;;;;5095840;27;20047;-90
2022/09/19 11:38:05;;;;;;;8.05;1.60;;;16.90;99.90;;;;;;5112797;27;20035;-89
2022/09/19 11:40:50;;;;;;;9.73;1.45;;;16.90;99.90;;;;;;5097103;27;20059;-90
2022/09/19 11:43:58;;;;;;;15.45;1.63;;;16.80;99.90;;;;;;5112445;27;20069;-89
2022/09/19 11:46:31;;;;;;;11.60;1.40;;;16.90;99.90;;;;;;5094876;27;20043;-91
2022/09/19 11:49:09;;;;;;;;;;;17.20;99.90;;;;;;5097195;27;20095;-91
2022/09/19 11:52:08;;;;;;;9.65;2.65;;;17.40;99.90;;;;;;5094559;27;19923;-91
2022/09/19 11:54:55;;;;;;;10.70;2.47;;;17.60;99.90;;;;;;5095581;27;20035;-89
2022/09/19 11:57:38;;;;;;;7.65;1.55;;;17.70;99.90;;;;;;5113785;27;20094;-92
2022/09/19 12:00:16;;;;;;;18.63;1.83;;;17.80;99.90;;;;;;5094301;27;20034;-90
2022/09/19 12:02:53;;;;;;;9.60;1.52;;;17.90;99.90;;;;;;5112858;27;20058;-92
2022/09/19 12:05:37;;;;;;;9.20;2.05;;;17.70;99.90;;;;;;5113867;27;20082;-91
2022/09/19 12:08:26;;;;;;;10.95;2.22;;;17.80;99.90;;;;;;5094824;27;20356;-91
2022/09/19 12:11:21;;;;;;;15.52;2.08;;;17.80;99.90;;;;;;5113775;27;20039;-92
2022/09/19 12:13:59;;;;;;;15.98;1.98;;;17.70;99.90;;;;;;5094355;27;20050;-90
2022/09/19 12:16:43;;;;;;;12.82;2.05;;;17.50;99.90;;;;;;5110630;27;20051;-90
2022/09/19 12:19:18;;;;;;;11.32;1.95;;;17.50;99.90;;;;;;5113359;27;20486;-90
2022/09/19 12:21:55;;;;;;;15.43;1.92;;;17.70;99.90;;;;;;5094615;27;20046;-90
2022/09/19 12:24:52;;;;;;;12.63;1.65;;;17.70;99.90;;;;;;5111912;27;20051;-89
2022/09/19 12:27:31;;;;;;;17.85;2.08;;;17.70;99.90;;;;;;5112795;27;20046;-89
2022/09/19 12:30:02;;;;;;;13.20;1.75;;;17.80;99.90;;;;;;5110801;27;20405;-89
2022/09/19 12:32:51;;;;;;;15.68;3.30;;;17.80;99.90;;;;;;5096290;27;20043;-87
2022/09/19 12:35:46;;;;;;;11.43;1.65;;;17.90;99.90;;;;;;5080642;27;20058;-86
2022/09/19 12:38:41;;;;;;;10.00;2.05;;;17.90;99.90;;;;;;5088485;27;20062;-88
2022/09/19 12:41:13;;;;;;;8.20;2.47;;;18.10;99.90;;;;;;5105822;27;20066;-86
2022/09/19 12:43:49;;;;;;;17.15;1.63;;;18.10;99.90;;;;;;5102077;27;20046;-86
2022/09/19 12:46:39;;;;;;;8.52;1.20;;;18.20;99.90;;;;;;5122208;27;20047;-86
2022/09/19 12:49:20;;;;;;;8.48;1.45;;;18.30;99.90;;;;;;5098583;27;20047;-87
2022/09/19 12:52:12;;;;;;;6.93;1.05;;;18.30;99.90;;;;;;5114831;28;20031;-87
2022/09/19 12:55:13;;;;;;;7.15;1.02;;;18.30;99.90;;;;;;5114744;28;20031;-87
2022/09/19 12:58:09;;;;;;;13.40;1.80;;;18.40;99.90;;;;;;5117856;28;20044;-86
2022/09/19 13:00:42;;;;;;;13.13;1.50;;;18.30;99.90;;;;;;5134353;28;20047;-87
2022/09/19 13:03:23;;;;;;;11.75;1.58;;;18.10;99.90;;;;;;5134747;28;20054;-89
2022/09/19 13:06:00;;;;;;;15.00;2.08;;;17.80;99.90;;;;;;5137201;28;20046;-89
2022/09/19 13:08:38;;;;;;;11.80;2.17;;;17.60;99.90;;;;;;5132858;28;20039;-89
2022/09/19 13:11:24;;;;;;;12.63;2.75;;;17.50;99.90;;;;;;5132206;27;20078;-88
2022/09/19 13:13:56;;;;;;;9.40;1.17;;;17.40;99.90;;;;;;5117570;27;20046;-89
2022/09/19 13:16:31;;;;;;;10.30;1.73;;;17.20;99.90;;;;;;5138692;27;20088;-88
2022/09/19 13:24:50;;;;;;;9.00;1.23;;;16.90;99.90;;;;;;5136873;27;20099;-89
2022/09/19 13:27:16;;;;;;;6.75;1.10;;;17.00;99.90;;;;;;5132125;27;20039;-85
2022/09/19 13:29:45;;;;;;;6.43;0.90;;;17.20;99.90;;;;;;5103131;27;20075;-86
2022/09/19 13:32:52;;;;;;;6.05;1.02;;;17.40;99.90;;;;;;5116698;27;20092;-87
2022/09/19 13:35:22;;;;;;;9.57;1.20;;;17.40;99.90;;;;;;5117443;27;20043;-87
2022/09/19 13:37:57;;;;;;;4.55;0.70;;;17.30;99.90;;;;;;5098036;27;20035;-86
2022/09/19 13:40:27;;;;;;;7.25;1.02;;;17.30;99.90;;;;;;5117394;27;20054;-86
2022/09/19 13:43:17;;;;;;;6.60;0.90;;;17.30;99.90;;;;;;5118248;27;20405;-87
2022/09/19 13:46:29;;;;;;;7.32;1.38;;;17.30;99.90;;;;;;5115376;27;20051;-86
2022/09/19 13:49:05;;;;;;;12.43;1.67;;;17.40;99.90;;;;;;4998993;28;20515;-86
2022/09/19 13:51:41;;;;;;;10.27;1.25;;;17.20;99.90;;;;;;5109055;27;20486;-87
2022/09/19 13:54:23;;;;;;;12.35;1.13;;;17.00;99.90;;;;;;5116048;27;20050;-87